Time;durP1;ratioP1;P1;durP2;ratioP2;P2;SDS_P1;SDS_P2;PMS_P1;PMS_P2;Temp;Humidity;BMP_temperature;BMP_pressure;BME280_temperature;BME280_humidity;BME280_pressure;Samples;Min_cycle;Max_cycle;Signal;HPM_P1;HPM_P2
2022/07/28 00:01:00;;;;;;;1.73;1.63;;;;;;;19.67;50.25;99257.75;5008407;28;20268;-77
2022/07/28 00:03:26;;;;;;;4.00;2.30;;;;;;;19.67;50.39;99254.28;4992534;28;20479;-77
2022/07/28 00:05:51;;;;;;;2.20;2.00;;;;;;;19.63;50.56;99255.56;5010595;28;20226;-77
2022/07/28 00:08:17;;;;;;;5.20;2.50;;;;;;;19.58;50.77;99261.41;4990033;28;20225;-77
2022/07/28 00:10:42;;;;;;;2.10;1.90;;;;;;;19.53;50.54;99254.91;5009059;28;20210;-77
2022/07/28 00:13:08;;;;;;;3.30;1.93;;;;;;;19.50;50.82;99252.56;5010601;28;20208;-77
2022/07/28 00:15:33;;;;;;;5.60;2.10;;;;;;;19.47;50.62;99248.38;5009843;28;20214;-77
2022/07/28 00:17:59;;;;;;;3.23;2.00;;;;;;;19.43;50.53;99252.38;5007619;28;20236;-77
2022/07/28 00:20:26;;;;;;;4.90;2.40;;;;;;;19.40;50.59;99247.38;5009263;28;20214;-77
2022/07/28 00:22:52;;;;;;;2.60;2.17;;;;;;;19.36;50.69;99240.69;5010317;28;20458;-77
2022/07/28 00:25:18;;;;;;;2.40;2.20;;;;;;;19.29;50.75;99245.00;5009315;28;20853;-77
2022/07/28 00:27:43;;;;;;;3.47;1.83;;;;;;;19.22;50.75;99242.16;5010157;28;20478;-77
2022/07/28 00:30:09;;;;;;;3.97;2.07;;;;;;;19.13;50.87;99235.97;5010525;28;20254;-77
2022/07/28 00:32:35;;;;;;;5.25;2.20;;;;;;;19.05;51.10;99238.59;5007522;28;20967;-77
2022/07/28 00:35:00;;;;;;;4.20;1.87;;;;;;;18.92;51.27;99246.22;5008650;28;20235;-77
2022/07/28 00:37:26;;;;;;;5.77;2.20;;;;;;;18.86;51.45;99246.84;5010329;28;20718;-77
2022/07/28 00:39:51;;;;;;;2.80;2.10;;;;;;;18.82;51.58;99248.16;5010647;28;20267;-77
2022/07/28 00:42:18;;;;;;;2.33;2.00;;;;;;;18.81;51.43;99244.66;5008034;28;20324;-77
2022/07/28 00:44:44;;;;;;;2.03;1.70;;;;;;;18.76;51.34;99239.81;4988992;28;20294;-77
2022/07/28 00:47:10;;;;;;;2.57;2.20;;;;;;;18.73;51.51;99240.09;5009181;28;20571;-77
2022/07/28 00:49:36;;;;;;;4.20;1.90;;;;;;;18.70;51.43;99239.59;5008656;28;20729;-76
2022/07/28 00:52:03;;;;;;;2.67;1.63;;;;;;;18.64;51.28;99243.72;5008374;28;20465;-77
2022/07/28 00:54:29;;;;;;;3.40;1.77;;;;;;;18.61;51.76;99246.72;5007512;28;20547;-77
2022/07/28 00:56:55;;;;;;;3.70;2.10;;;;;;;18.61;51.46;99244.03;5008285;28;20487;-77
2022/07/28 00:59:20;;;;;;;3.00;1.80;;;;;;;18.60;51.68;99242.34;5009793;28;20855;-77
2022/07/28 01:01:47;;;;;;;2.97;2.07;;;;;;;18.54;51.79;99243.00;5008118;28;20207;-77
2022/07/28 01:04:13;;;;;;;2.97;1.90;;;;;;;18.54;52.17;99246.47;5007237;28;20542;-77
2022/07/28 01:06:59;;;;;;;3.70;3.00;;;;;;;18.51;52.24;99245.97;5008455;28;20477;-77
2022/07/28 01:09:44;;;;;;;5.30;1.80;;;;;;;18.50;52.08;99242.50;5003368;28;20542;-77
2022/07/28 01:12:40;;;;;;;4.70;2.00;;;;;;;18.49;52.17;99242.63;4999832;28;20469;-77
2022/07/28 01:15:11;;;;;;;3.33;1.63;;;;;;;18.45;52.17;99233.31;5007714;28;20461;-77
2022/07/28 01:17:55;;;;;;;2.90;1.57;;;;;;;18.40;52.29;99240.94;5009376;28;20486;-77
2022/07/28 01:20:30;;;;;;;3.17;1.87;;;;;;;18.34;52.28;99240.56;4986334;28;20496;-77
2022/07/28 01:23:11;;;;;;;3.53;2.40;;;;;;;18.27;52.27;99242.16;5007927;28;20594;-77
2022/07/28 01:25:54;;;;;;;2.43;2.13;;;;;;;18.24;52.72;99239.81;5007880;28;20505;-77
2022/07/28 01:28:49;;;;;;;1.80;1.70;;;;;;;18.21;52.54;99232.16;5008587;28;20954;-77
2022/07/28 01:31:22;;;;;;;1.70;1.60;;;;;;;18.20;52.70;99237.63;5008752;28;20531;-77
2022/07/28 01:33:53;;;;;;;3.10;1.60;;;;;;;18.19;52.87;99231.47;5004525;28;20495;-77
2022/07/28 01:36:26;;;;;;;3.30;2.10;;;;;;;18.11;53.08;99231.41;5008087;28;20219;-77
2022/07/28 01:38:52;;;;;;;2.17;1.83;;;;;;;18.13;52.90;99232.09;5008849;28;20480;-77
2022/07/28 01:41:21;;;;;;;1.93;1.70;;;;;;;18.08;52.93;99227.25;5008114;28;20861;-77
2022/07/28 01:43:53;;;;;;;2.37;1.50;;;;;;;18.02;52.99;99230.53;5005457;28;20471;-77
2022/07/28 01:46:20;;;;;;;3.93;1.77;;;;;;;18.01;52.90;99222.69;5007547;28;21283;-77
2022/07/28 01:48:47;;;;;;;2.20;1.77;;;;;;;17.99;52.87;99220.22;5007390;28;20498;-77
2022/07/28 01:51:14;;;;;;;2.93;2.10;;;;;;;17.94;53.05;99221.66;5009084;28;20445;-77
2022/07/28 01:53:43;;;;;;;1.83;1.60;;;;;;;17.89;53.28;99214.97;5007454;28;20463;-77
2022/07/28 01:58:56;;;;;;;3.07;1.57;;;;;;;17.84;53.49;99209.28;4962959;28;20818;-79
2022/07/28 02:01:24;;;;;;;2.57;1.90;;;;;;;17.85;53.24;99204.81;4966980;28;21026;-80
2022/07/28 02:03:50;;;;;;;3.43;1.57;;;;;;;17.83;53.31;99206.78;4968069;28;20464;-79
2022/07/28 02:06:18;;;;;;;2.97;1.90;;;;;;;17.78;53.49;99217.84;4969193;28;20483;-79
2022/07/28 02:08:46;;;;;;;3.60;2.30;;;;;;;17.70;53.63;99218.59;4968358;28;20495;-83
2022/07/28 02:13:57;;;;;;;4.63;2.10;;;;;;;17.54;54.42;99213.16;4968381;28;20481;-79
2022/07/28 02:16:25;;;;;;;3.93;1.90;;;;;;;17.38;55.04;99210.34;4969962;28;20487;-78
2022/07/28 02:18:54;;;;;;;5.13;2.53;;;;;;;17.30;55.18;99207.59;4966436;28;20825;-78
2022/07/28 02:21:21;;;;;;;2.40;2.20;;;;;;;17.25;55.53;99211.56;4969323;28;20519;-79
2022/07/28 02:23:49;;;;;;;2.53;1.80;;;;;;;17.19;55.70;99200.69;4966262;28;20506;-79
2022/07/28 02:26:17;;;;;;;2.80;1.87;;;;;;;17.13;55.78;99201.28;4969841;28;20712;-78
2022/07/28 02:28:45;;;;;;;1.60;1.40;;;;;;;17.08;55.69;99206.22;4967695;28;20984;-80
2022/07/28 02:31:34;;;;;;;2.97;2.00;;;;;;;17.05;56.53;99203.88;4965907;28;21052;-79
2022/07/28 02:34:03;;;;;;;2.60;1.60;;;;;;;16.96;56.70;99200.28;4969070;28;20304;-79
2022/07/28 02:36:37;;;;;;;1.70;1.43;;;;;;;16.91;56.67;99203.38;4970004;28;20482;-79
2022/07/28 02:39:14;;;;;;;2.83;1.67;;;;;;;16.91;56.61;99199.91;4961845;28;20471;-80
2022/07/28 02:41:42;;;;;;;2.60;1.60;;;;;;;16.92;56.48;99207.69;4963772;28;20563;-79
2022/07/28 02:44:18;;;;;;;2.17;1.77;;;;;;;16.95;56.35;99195.94;4951338;28;20468;-78
2022/07/28 02:46:46;;;;;;;1.70;1.60;;;;;;;16.96;56.25;99198.47;4948034;28;20856;-79
2022/07/28 02:49:23;;;;;;;2.40;2.10;;;;;;;16.97;56.21;99202.78;4949037;29;20481;-78
2022/07/28 02:51:51;;;;;;;3.77;2.50;;;;;;;16.96;56.14;99197.63;4950257;28;20478;-80
2022/07/28 02:54:19;;;;;;;3.90;2.53;;;;;;;17.00;55.94;99202.47;4949477;28;20452;-79
2022/07/28 02:56:49;;;;;;;2.60;1.50;;;;;;;17.04;55.65;99203.03;4950926;28;20481;-78
2022/07/28 02:59:16;;;;;;;2.37;2.17;;;;;;;17.04;55.87;99205.69;4950259;28;20468;-79
2022/07/28 03:01:42;;;;;;;2.17;1.97;;;;;;;17.03;55.77;99199.53;4951687;28;20466;-79
2022/07/28 03:04:09;;;;;;;2.80;1.40;;;;;;;17.03;55.68;99206.66;4951213;28;20952;-79
2022/07/28 03:06:35;;;;;;;4.07;2.20;;;;;;;17.02;55.60;99205.00;4949255;28;20232;-83
2022/07/28 03:09:00;;;;;;;5.07;1.80;;;;;;;16.99;55.65;99211.44;4950903;28;20472;-82
2022/07/28 03:11:26;;;;;;;5.30;1.63;;;;;;;16.96;55.46;99209.06;4952814;28;20209;-79
2022/07/28 03:13:52;;;;;;;2.23;1.30;;;;;;;16.93;55.79;99213.81;4968468;28;20209;-79
2022/07/28 03:16:17;;;;;;;2.37;1.70;;;;;;;16.95;55.71;99218.00;4950743;29;20451;-78
2022/07/28 03:18:43;;;;;;;2.20;1.70;;;;;;;16.98;55.64;99225.66;4952188;28;20693;-80
2022/07/28 03:21:12;;;;;;;1.33;1.23;;;;;;;17.00;55.96;99218.38;4957217;28;20216;-81
2022/07/28 03:23:46;;;;;;;4.23;1.40;;;;;;;16.91;55.63;99229.91;4959973;28;20483;-82
2022/07/28 03:26:39;;;;;;;2.80;1.73;;;;;;;16.85;55.99;99230.50;4959035;28;20567;-81
2022/07/28 03:29:10;;;;;;;2.50;1.87;;;;;;;16.79;56.18;99225.75;4957704;28;20476;-79
2022/07/28 03:31:40;;;;;;;3.07;1.73;;;;;;;16.78;56.17;99229.41;4958697;28;20833;-83
2022/07/28 03:34:10;;;;;;;4.53;1.97;;;;;;;16.80;56.44;99228.28;4949746;28;20489;-86
2022/07/28 03:36:49;;;;;;;2.37;1.53;;;;;;;16.72;56.72;99229.97;4932758;28;20490;-82
2022/07/28 03:39:23;;;;;;;5.53;2.43;;;;;;;16.63;56.95;99236.13;4953422;28;20472;-82
2022/07/28 03:41:54;;;;;;;3.73;2.33;;;;;;;16.64;56.90;99232.50;4937483;28;20544;-85
2022/07/28 03:44:21;;;;;;;2.17;1.60;;;;;;;16.63;56.80;99230.81;4932782;28;20441;-80
2022/07/28 03:46:53;;;;;;;3.00;1.63;;;;;;;16.60;56.92;99238.09;4946848;28;20481;-80
2022/07/28 03:49:20;;;;;;;2.10;1.90;;;;;;;16.55;57.07;99235.06;4958110;28;20488;-80
2022/07/28 03:51:49;;;;;;;2.50;1.80;;;;;;;16.52;57.14;99240.63;4955654;29;20587;-80
2022/07/28 03:54:18;;;;;;;4.20;1.83;;;;;;;16.49;57.33;99230.31;4939418;29;20453;-79
2022/07/28 03:56:44;;;;;;;2.50;1.87;;;;;;;16.46;57.50;99240.38;4955227;29;20973;-80
2022/07/28 03:59:10;;;;;;;2.60;1.70;;;;;;;16.44;57.46;99237.84;4957406;29;20437;-80
2022/07/28 04:01:39;;;;;;;3.58;1.77;;;;;;;16.43;58.15;99236.19;4954972;29;20531;-80
2022/07/28 04:04:08;;;;;;;4.17;1.90;;;;;;;16.39;57.93;99240.13;4939859;29;20249;-80
2022/07/28 04:06:33;;;;;;;2.43;1.60;;;;;;;16.38;57.96;99241.09;4940400;29;20492;-80
2022/07/28 04:09:02;;;;;;;2.37;1.80;;;;;;;16.33;58.14;99246.81;4958956;29;20476;-80
2022/07/28 04:11:28;;;;;;;3.27;1.70;;;;;;;16.31;57.97;99237.34;4959472;29;20496;-79
2022/07/28 04:13:55;;;;;;;2.07;1.60;;;;;;;16.29;58.24;99245.44;4957771;29;20433;-80
2022/07/28 04:16:22;;;;;;;3.07;1.93;;;;;;;16.29;58.18;99247.25;4957282;29;21064;-80
2022/07/28 04:18:48;;;;;;;5.40;2.20;;;;;;;16.32;58.01;99249.63;4957756;28;20437;-79
2022/07/28 04:21:16;;;;;;;1.57;1.47;;;;;;;16.39;57.78;99261.34;4941382;29;20965;-79
2022/07/28 04:23:42;;;;;;;1.80;1.70;;;;;;;16.49;57.41;99248.88;4956729;29;20438;-79
2022/07/28 04:26:08;;;;;;;1.43;1.33;;;;;;;16.59;57.34;99251.50;4938848;29;20455;-80
2022/07/28 04:28:35;;;;;;;5.13;1.93;;;;;;;16.67;57.24;99253.44;4958828;29;20468;-79
2022/07/28 04:31:01;;;;;;;2.40;1.90;;;;;;;16.74;57.18;99254.50;4954474;29;20232;-80
2022/07/28 04:33:28;;;;;;;2.20;1.70;;;;;;;16.74;57.26;99246.53;4941426;29;20450;-80
2022/07/28 04:35:54;;;;;;;3.57;2.03;;;;;;;16.83;56.77;99248.38;4956844;29;20457;-78
2022/07/28 04:38:22;;;;;;;3.00;2.03;;;;;;;16.94;56.64;99250.81;4937790;29;20968;-79
2022/07/28 04:40:48;;;;;;;2.00;1.80;;;;;;;17.05;56.38;99246.31;4954024;29;20969;-79
2022/07/28 04:43:14;;;;;;;2.33;1.90;;;;;;;17.14;56.06;99253.38;4954581;29;20953;-79
2022/07/28 04:45:45;;;;;;;1.87;1.43;;;;;;;17.20;55.76;99255.44;4954555;29;20886;-80
2022/07/28 04:48:12;;;;;;;2.70;1.70;;;;;;;17.26;55.54;99249.53;4955344;29;21088;-78
2022/07/28 04:50:44;;;;;;;2.10;1.67;;;;;;;17.35;55.24;99243.34;4955442;29;20556;-79
2022/07/28 04:53:11;;;;;;;1.70;1.23;;;;;;;17.43;55.08;99246.06;4958128;28;20477;-80
2022/07/28 04:55:38;;;;;;;2.70;1.73;;;;;;;17.57;54.49;99251.84;4968950;29;20457;-81
2022/07/28 04:58:04;;;;;;;5.33;1.80;;;;;;;17.73;54.20;99249.34;4955675;28;20486;-80
2022/07/28 05:00:34;;;;;;;4.20;1.80;;;;;;;18.34;52.56;99245.88;4957915;28;20541;-82
2022/07/28 05:03:02;;;;;;;4.68;2.22;;;;;;;18.77;51.22;99252.13;4940246;29;20513;-79
2022/07/28 05:05:28;;;;;;;3.97;2.10;;;;;;;19.16;50.18;99248.13;4938177;29;20700;-79
2022/07/28 05:07:57;;;;;;;2.20;1.40;;;;;;;20.00;48.00;99233.78;4936760;29;20982;-79
2022/07/28 05:10:23;;;;;;;4.97;2.70;;;;;;;21.15;45.18;99236.19;4935520;29;21003;-79
2022/07/28 05:12:49;;;;;;;3.97;1.67;;;;;;;22.22;42.54;99244.31;4936908;29;20469;-78
2022/07/28 05:15:18;;;;;;;3.67;1.93;;;;;;;23.17;40.66;99230.25;4918630;29;20967;-79
2022/07/28 05:17:44;;;;;;;6.70;2.30;;;;;;;24.07;38.60;99232.41;4933854;29;20480;-79
2022/07/28 05:20:13;;;;;;;2.47;1.80;;;;;;;24.79;37.12;99225.06;4917273;29;20498;-79
2022/07/28 05:22:46;;;;;;;1.77;1.27;;;;;;;25.45;35.77;99229.06;4934005;29;20842;-79
2022/07/28 05:25:22;;;;;;;2.60;1.53;;;;;;;25.95;34.80;99218.78;4934884;29;20947;-80
2022/07/28 05:27:49;;;;;;;4.90;1.70;;;;;;;26.40;33.58;99225.19;4916686;29;20861;-80
2022/07/28 05:30:16;;;;;;;2.80;2.00;;;;;;;26.66;33.24;99221.66;4933836;29;20464;-79
2022/07/28 05:32:44;;;;;;;1.30;1.20;;;;;;;27.05;32.70;99219.84;4916190;29;20461;-80
2022/07/28 05:35:10;;;;;;;1.50;1.40;;;;;;;27.40;32.17;99221.38;4917116;29;20478;-79
2022/07/28 05:37:48;;;;;;;1.87;1.67;;;;;;;27.77;31.57;99225.91;4933736;29;20453;-79
2022/07/28 05:40:14;;;;;;;2.37;1.60;;;;;;;28.05;31.01;99216.56;4934059;29;20466;-80
2022/07/28 05:42:46;;;;;;;4.57;1.77;;;;;;;28.39;30.41;99217.09;4932360;29;20914;-80
2022/07/28 05:45:15;;;;;;;2.80;1.70;;;;;;;28.81;29.86;99212.72;4935683;29;20442;-80
2022/07/28 05:47:53;;;;;;;1.97;1.40;;;;;;;29.24;28.85;99206.38;4934078;29;20486;-79
2022/07/28 05:50:23;;;;;;;2.97;1.73;;;;;;;29.52;28.49;99213.91;4934670;29;20568;-78
2022/07/28 05:52:50;;;;;;;4.10;1.97;;;;;;;29.75;28.09;99215.03;4934678;29;20447;-80
2022/07/28 05:55:16;;;;;;;1.70;1.53;;;;;;;30.01;27.45;99213.78;4916869;29;20815;-80
2022/07/28 05:57:43;;;;;;;2.33;1.50;;;;;;;30.27;26.98;99211.69;4943936;29;20492;-81
2022/07/28 06:00:14;;;;;;;3.07;2.00;;;;;;;30.39;26.91;99217.94;4957680;28;20464;-80
2022/07/28 06:02:44;;;;;;;3.27;1.70;;;;;;;30.58;26.43;99222.16;4955871;28;20466;-81
2022/07/28 06:05:14;;;;;;;2.17;1.60;;;;;;;30.78;26.15;99215.53;4956239;28;20453;-79
2022/07/28 06:07:45;;;;;;;2.80;1.63;;;;;;;30.90;26.04;99216.38;4957791;28;20555;-80
2022/07/28 06:10:15;;;;;;;2.27;1.43;;;;;;;30.25;27.06;99221.97;4938410;29;20494;-79
2022/07/28 06:12:52;;;;;;;2.63;1.70;;;;;;;30.50;26.43;99224.44;4958536;29;20453;-79
2022/07/28 06:15:21;;;;;;;4.30;1.30;;;;;;;30.80;26.17;99218.84;4961638;29;20449;-80
2022/07/28 06:17:54;;;;;;;1.87;1.57;;;;;;;31.26;25.33;99212.47;4965698;28;20489;-81
2022/07/28 06:20:28;;;;;;;4.47;1.50;;;;;;;31.41;24.88;99220.13;4950422;29;20835;-80
2022/07/28 06:22:54;;;;;;;3.97;1.70;;;;;;;30.42;26.02;99218.28;4963065;28;21045;-79
2022/07/28 06:25:26;;;;;;;5.63;2.40;;;;;;;30.00;26.80;99217.53;4964195;28;20497;-79
2022/07/28 06:27:57;;;;;;;2.40;1.37;;;;;;;29.37;27.52;99218.06;4948441;28;20557;-81
2022/07/28 06:30:23;;;;;;;3.93;1.60;;;;;;;28.87;28.05;99219.94;4969479;28;20453;-80
2022/07/28 06:32:49;;;;;;;5.23;1.60;;;;;;;28.25;29.25;99221.81;4953368;28;20466;-78
2022/07/28 06:35:16;;;;;;;2.10;1.60;;;;;;;27.75;29.87;99225.28;4950722;29;20454;-78
2022/07/28 06:37:43;;;;;;;2.90;1.40;;;;;;;27.74;30.21;99228.22;4949612;29;20485;-77
2022/07/28 06:40:10;;;;;;;4.30;1.60;;;;;;;28.87;28.50;99219.94;4950438;28;20490;-78
2022/07/28 06:42:36;;;;;;;2.30;2.10;;;;;;;30.01;26.94;99221.09;4949538;28;20473;-78
2022/07/28 06:45:01;;;;;;;4.50;1.90;;;;;;;29.75;27.34;99217.75;4893623;28;20494;-78
2022/07/28 06:47:27;;;;;;;4.93;1.57;;;;;;;29.45;27.88;99229.41;4949974;29;20764;-79
2022/07/28 06:49:52;;;;;;;2.80;1.60;;;;;;;29.59;27.58;99221.09;4954158;28;20225;-79
2022/07/28 06:52:19;;;;;;;2.60;1.73;;;;;;;29.48;27.75;99225.41;4956641;28;20227;-79
2022/07/28 06:54:45;;;;;;;2.90;1.83;;;;;;;30.02;27.17;99233.56;4952272;28;20210;-78
2022/07/28 06:57:12;;;;;;;2.83;1.70;;;;;;;30.51;26.32;99221.47;4953713;28;20475;-79
2022/07/28 06:59:38;;;;;;;2.43;1.63;;;;;;;29.93;27.04;99220.38;4953635;29;20505;-78
2022/07/28 07:02:03;;;;;;;3.63;1.40;;;;;;;29.35;27.75;99223.69;4952314;29;20875;-79
2022/07/28 07:04:29;;;;;;;4.63;1.70;;;;;;;28.59;29.00;99219.63;4950513;28;20529;-78
2022/07/28 07:06:55;;;;;;;3.57;1.53;;;;;;;29.19;28.17;99222.47;4953567;28;20228;-78
2022/07/28 07:09:20;;;;;;;1.77;1.60;;;;;;;29.47;27.83;99227.28;4953139;28;20445;-78
2022/07/28 07:11:46;;;;;;;4.50;1.90;;;;;;;28.31;29.41;99223.63;4953791;29;20239;-78
2022/07/28 07:14:11;;;;;;;3.17;1.50;;;;;;;28.12;29.75;99228.16;4951354;29;20578;-78
2022/07/28 07:16:36;;;;;;;2.70;2.13;;;;;;;29.34;28.30;99222.88;4951592;28;20301;-78
2022/07/28 07:19:02;;;;;;;6.73;2.20;;;;;;;29.73;27.94;99219.84;4952346;28;20231;-79
2022/07/28 07:21:27;;;;;;;4.10;1.77;;;;;;;29.51;28.12;99222.22;4953543;29;20221;-79
2022/07/28 07:23:53;;;;;;;1.70;1.60;;;;;;;29.89;27.88;99221.06;4952980;28;20215;-79
2022/07/28 07:26:18;;;;;;;3.47;2.03;;;;;;;30.86;26.15;99215.19;4951268;29;20727;-79
2022/07/28 07:28:43;;;;;;;3.10;1.63;;;;;;;31.52;25.33;99204.84;4952858;29;20210;-79
2022/07/28 07:31:09;;;;;;;2.13;1.93;;;;;;;32.15;24.69;99205.63;4951734;28;20210;-79
2022/07/28 07:33:34;;;;;;;4.13;2.20;;;;;;;32.71;23.72;99205.63;4283902;28;20002939;-80
2022/07/28 07:35:59;;;;;;;1.73;1.63;;;;;;;33.21;23.25;99204.59;4970986;28;20208;-79
2022/07/28 07:38:25;;;;;;;2.30;1.50;;;;;;;33.48;22.84;99199.16;4971076;28;20320;-79
2022/07/28 07:40:50;;;;;;;1.93;1.73;;;;;;;33.25;23.19;99195.66;4972700;28;20205;-79
2022/07/28 07:43:18;;;;;;;3.70;1.63;;;;;;;32.30;24.45;99202.31;4972547;28;20209;-80
2022/07/28 07:48:41;;;;;;;4.60;1.90;;;;;;;31.22;25.62;99200.47;5074906;23;20498;-89
2022/07/28 07:51:16;;;;;;;2.13;1.83;;;;;;;31.25;25.63;99199.16;4947388;29;20552;-91
2022/07/28 07:53:42;;;;;;;3.30;2.07;;;;;;;31.08;26.12;99204.50;4948919;28;21195;-90
2022/07/28 07:56:13;;;;;;;3.37;1.80;;;;;;;31.22;26.05;99194.22;4950512;29;21090;-90
2022/07/28 07:58:38;;;;;;;4.60;1.73;;;;;;;31.40;25.75;99202.16;4949246;29;20502;-90
2022/07/28 08:01:12;;;;;;;2.73;2.53;;;;;;;31.99;25.01;99201.03;4950175;29;20485;-89
2022/07/28 08:03:53;;;;;;;3.63;2.13;;;;;;;31.87;25.05;99199.19;4950027;28;20302;-89
2022/07/28 08:06:21;;;;;;;2.83;1.93;;;;;;;32.07;24.79;99197.88;4949963;29;20585;-91
2022/07/28 08:08:52;;;;;;;2.43;1.87;;;;;;;32.68;24.01;99187.91;4949508;29;20462;-90
2022/07/28 08:11:20;;;;;;;2.27;1.67;;;;;;;33.20;23.47;99186.63;4949911;28;20956;-90
2022/07/28 08:13:48;;;;;;;2.03;1.70;;;;;;;33.78;22.60;99182.28;4921159;29;20498;-90
2022/07/28 08:16:23;;;;;;;4.00;2.00;;;;;;;33.78;22.41;99182.28;4927759;29;20474;-89
2022/07/28 08:18:57;;;;;;;1.80;1.70;;;;;;;32.98;23.76;99189.34;4935956;29;20486;-89
2022/07/28 08:21:26;;;;;;;3.47;2.20;;;;;;;32.98;23.69;99184.72;4930734;29;20222;-90
2022/07/28 08:24:20;;;;;;;2.50;2.30;;;;;;;33.10;23.23;99183.78;4936952;29;20465;-89
2022/07/28 08:26:55;;;;;;;2.07;1.93;;;;;;;33.15;23.54;99179.22;4941890;28;20461;-89
2022/07/28 08:29:23;;;;;;;2.50;2.13;;;;;;;33.14;23.50;99185.75;4932783;29;20518;-89
2022/07/28 08:31:48;;;;;;;2.97;2.47;;;;;;;33.64;22.91;99178.34;4932575;29;20459;-91
2022/07/28 08:34:25;;;;;;;4.20;2.63;;;;;;;34.12;22.37;99169.22;4932132;29;20863;-90
2022/07/28 08:36:50;;;;;;;4.63;2.10;;;;;;;34.38;22.13;99174.84;4930731;29;20232;-91
2022/07/28 08:39:18;;;;;;;1.93;1.77;;;;;;;34.12;22.41;99169.22;4927469;29;20851;-89
2022/07/28 08:42:12;;;;;;;4.30;2.10;;;;;;;32.78;23.71;99173.59;4924120;29;21060;-91
2022/07/28 08:44:54;;;;;;;4.00;2.17;;;;;;;30.88;26.56;99187.84;4930014;29;20530;-90
2022/07/28 08:47:27;;;;;;;2.43;1.73;;;;;;;30.07;28.15;99191.19;4924791;29;20946;-91
2022/07/28 08:49:58;;;;;;;3.13;1.97;;;;;;;29.82;28.85;99187.88;4945624;28;20506;-90
2022/07/28 08:52:34;;;;;;;3.43;2.67;;;;;;;29.68;29.33;99179.97;4944586;28;20454;-91
2022/07/28 08:55:05;;;;;;;4.70;2.40;;;;;;;29.35;29.37;99180.41;4947687;29;20470;-91
2022/07/28 08:57:35;;;;;;;2.23;1.93;;;;;;;28.95;30.55;99186.34;4947434;29;20515;-89
2022/07/28 09:00:05;;;;;;;3.57;1.60;;;;;;;28.67;30.95;99184.19;4948059;29;20584;-91
2022/07/28 09:02:41;;;;;;;2.38;2.10;;;;;;;28.78;31.30;99188.84;4948126;28;20475;-90
2022/07/28 09:05:08;;;;;;;5.73;3.00;;;;;;;28.84;31.21;99179.84;4947925;28;20231;-90
2022/07/28 09:07:41;;;;;;;2.03;1.80;;;;;;;28.89;31.12;99177.28;4930532;29;20490;-91
2022/07/28 09:10:10;;;;;;;3.27;2.30;;;;;;;29.10;30.86;99186.78;4930629;29;20460;-90
2022/07/28 09:12:38;;;;;;;4.80;2.23;;;;;;;28.98;30.88;99176.97;4949689;28;20477;-90
2022/07/28 09:15:12;;;;;;;2.77;1.97;;;;;;;28.80;31.44;99180.50;4943810;28;20504;-90
2022/07/28 09:17:43;;;;;;;2.33;1.90;;;;;;;28.37;32.31;99189.47;4940641;29;20462;-89
2022/07/28 09:20:10;;;;;;;2.20;2.00;;;;;;;28.42;31.94;99176.13;4931121;29;20534;-91
2022/07/28 09:22:56;;;;;;;1.83;1.53;;;;;;;28.69;31.89;99171.28;4932083;29;20450;-91
2022/07/28 09:25:23;;;;;;;9.00;2.00;;;;;;;29.00;31.49;99169.44;4949562;28;20461;-89
2022/07/28 09:27:51;;;;;;;3.80;2.73;;;;;;;29.46;31.17;99165.28;4946306;28;20837;-88
2022/07/28 09:30:40;;;;;;;2.77;2.10;;;;;;;29.57;30.62;99161.78;4953168;29;20497;-91
2022/07/28 09:33:26;;;;;;;3.57;2.30;;;;;;;29.76;30.72;99166.09;4948239;28;20572;-90
2022/07/28 09:35:56;;;;;;;2.57;2.23;;;;;;;30.05;30.22;99163.50;4948879;29;20462;-92
2022/07/28 09:38:26;;;;;;;3.20;2.40;;;;;;;30.08;30.57;99163.03;4947268;29;20468;-90
2022/07/28 09:41:06;;;;;;;5.13;2.57;;;;;;;29.65;30.36;99161.47;4947914;28;20473;-90
2022/07/28 09:43:43;;;;;;;3.03;2.60;;;;;;;29.24;31.13;99157.69;4947578;29;20465;-90
2022/07/28 09:46:15;;;;;;;4.57;2.30;;;;;;;29.42;31.02;99147.88;4948136;29;20461;-90
2022/07/28 09:49:01;;;;;;;2.20;2.00;;;;;;;29.56;30.75;99149.28;4930324;29;20482;-92
2022/07/28 09:51:41;;;;;;;3.50;2.37;;;;;;;29.27;31.47;99150.97;4941507;28;20463;-89
2022/07/28 09:54:23;;;;;;;;;;;;;;;;;;;;;
2022/07/28 09:56:53;;;;;;;2.80;2.00;;;;;;;29.44;31.33;99149.28;4941136;29;20468;-92
2022/07/28 09:59:24;;;;;;;5.80;2.90;;;;;;;29.65;31.15;99141.69;4945022;29;20487;-90
2022/07/28 10:02:11;;;;;;;6.67;2.70;;;;;;;29.76;30.79;99149.84;4928093;29;20460;-91
2022/07/28 10:04:52;;;;;;;4.53;2.23;;;;;;;29.99;30.98;99153.63;4944430;29;20465;-90
2022/07/28 10:07:24;;;;;;;5.27;2.73;;;;;;;30.10;30.21;99151.97;4948145;29;20458;-90
2022/07/28 10:10:00;;;;;;;3.00;2.40;;;;;;;29.72;30.90;99145.94;4947612;28;20450;-91
2022/07/28 10:12:34;;;;;;;2.77;2.57;;;;;;;29.52;31.70;99142.72;4946114;28;20657;-91
2022/07/28 10:18:05;;;;;;;2.93;2.73;;;;;;;30.02;30.75;99130.66;4945270;28;20548;-90
2022/07/28 10:20:49;;;;;;;3.07;2.87;;;;;;;29.77;30.96;99129.81;4927759;29;20480;-89
2022/07/28 10:23:16;;;;;;;3.27;2.90;;;;;;;29.55;31.36;99126.00;4948542;29;20497;-90
2022/07/28 10:25:43;;;;;;;6.63;2.90;;;;;;;29.68;31.31;99131.25;4930659;29;20793;-90
2022/07/28 10:28:15;;;;;;;6.20;3.07;;;;;;;30.02;30.54;99126.06;4945436;28;20791;-90
2022/07/28 10:30:48;;;;;;;3.30;2.47;;;;;;;30.43;30.53;99119.69;4935240;29;20578;-89
2022/07/28 10:33:17;;;;;;;7.53;3.10;;;;;;;30.70;29.86;99118.31;4940572;29;20526;-91
2022/07/28 10:35:47;;;;;;;2.73;2.50;;;;;;;30.84;29.61;99109.69;4929918;29;20221;-91
2022/07/28 10:38:15;;;;;;;2.77;2.30;;;;;;;31.02;29.41;99097.81;4947559;28;20529;-91
2022/07/28 10:40:49;;;;;;;5.93;3.00;;;;;;;31.23;29.21;99098.16;4946705;29;20487;-90
2022/07/28 10:43:15;;;;;;;5.23;3.93;;;;;;;31.40;29.05;99088.16;4943278;28;20532;-90
2022/07/28 10:45:43;;;;;;;3.17;2.50;;;;;;;31.65;28.89;99090.50;4947568;28;20509;-90
2022/07/28 10:48:11;;;;;;;7.93;4.07;;;;;;;31.55;28.60;99094.94;4948766;28;20482;-91
2022/07/28 10:50:40;;;;;;;2.30;2.20;;;;;;;31.45;28.86;99088.25;4947552;28;20473;-91
2022/07/28 10:53:17;;;;;;;4.00;3.60;;;;;;;31.48;28.75;99093.19;4949066;28;20480;-92
2022/07/28 10:56:01;;;;;;;6.10;2.73;;;;;;;31.51;28.75;99092.72;4949878;29;20461;-93
2022/07/28 10:58:51;;;;;;;8.90;3.03;;;;;;;31.48;29.26;99089.66;4948949;29;20471;-90
2022/07/28 11:01:39;;;;;;;7.23;2.90;;;;;;;31.30;28.88;99088.00;4952851;29;20450;-90
2022/07/28 11:04:07;;;;;;;4.80;3.47;;;;;;;31.41;29.19;99092.56;4955649;28;20465;-91
2022/07/28 11:06:46;;;;;;;3.47;3.10;;;;;;;31.49;29.31;99096.75;4953280;29;20541;-90
2022/07/28 11:09:15;;;;;;;5.83;2.60;;;;;;;31.62;29.24;99087.44;4957912;28;20473;-89
2022/07/28 11:11:53;;;;;;;3.40;3.10;;;;;;;31.63;29.11;99083.66;4943857;28;20477;-91
2022/07/28 11:14:21;;;;;;;3.90;3.10;;;;;;;31.57;28.99;99080.03;4925341;28;20498;-90
2022/07/28 11:17:00;;;;;;;4.50;3.20;;;;;;;31.61;28.99;99080.38;4967576;29;20462;-92
2022/07/28 11:19:43;;;;;;;4.83;3.43;;;;;;;31.69;29.20;99074.50;4967721;28;20477;-93
2022/07/28 11:22:20;;;;;;;4.00;3.23;;;;;;;31.34;29.25;99067.41;4961150;28;20578;-92
2022/07/28 11:25:01;;;;;;;3.27;2.70;;;;;;;31.03;29.69;99069.63;4947179;29;20465;-91
2022/07/28 11:27:53;;;;;;;3.90;3.60;;;;;;;30.80;30.12;99069.69;4932951;29;20458;-91
2022/07/28 11:30:30;;;;;;;4.47;4.00;;;;;;;30.90;29.90;99067.22;4931844;29;20967;-92
2022/07/28 11:33:06;;;;;;;6.70;3.13;;;;;;;31.03;30.11;99068.81;4947704;29;20486;-89
2022/07/28 11:35:42;;;;;;;3.20;2.90;;;;;;;30.99;30.50;99059.50;4948939;29;20979;-90
2022/07/28 11:38:15;;;;;;;4.07;3.67;;;;;;;31.01;30.25;99058.19;4949123;28;20497;-93
2022/07/28 11:40:54;;;;;;;4.03;3.13;;;;;;;31.00;30.26;99055.72;4928484;29;20476;-89
2022/07/28 11:43:25;;;;;;;4.00;3.60;;;;;;;31.07;30.36;99049.06;4933362;29;20480;-90
2022/07/28 11:45:51;;;;;;;4.17;3.57;;;;;;;31.03;30.41;99047.94;4951686;28;20468;-90
2022/07/28 11:48:24;;;;;;;3.67;3.37;;;;;;;30.96;30.45;99049.97;4953655;28;20489;-92
2022/07/28 11:51:02;;;;;;;4.63;4.23;;;;;;;30.95;30.29;99042.09;4950506;29;20468;-91
2022/07/28 11:54:00;;;;;;;3.80;3.50;;;;;;;31.03;30.52;99049.81;4932195;29;20493;-92
2022/07/28 11:56:34;;;;;;;3.70;3.40;;;;;;;31.03;30.14;99053.34;4950754;28;20454;-91
2022/07/28 11:59:05;;;;;;;3.20;2.87;;;;;;;31.01;29.95;99047.34;4949638;28;20551;-91
2022/07/28 12:01:32;;;;;;;6.57;4.10;;;;;;;31.03;30.22;99055.25;4949894;28;20465;-92